sensor_id;sensor_type;location;lat;lon;timestamp;P1;durP1;ratioP1;P2;durP2;ratioP2
11927;SDS011;6023;47.070;15.126;2023-04-03T00:01:23;1.40;;;1.27;;
11927;SDS011;6023;47.070;15.126;2023-04-03T00:03:52;1.60;;;1.50;;
11927;SDS011;6023;47.070;15.126;2023-04-03T00:06:21;2.23;;;1.13;;
11927;SDS011;6023;47.070;15.126;2023-04-03T00:08:50;1.30;;;1.20;;
11927;SDS011;6023;47.070;15.126;2023-04-03T00:11:18;1.83;;;1.40;;
11927;SDS011;6023;47.070;15.126;2023-04-03T00:13:48;1.50;;;1.40;;
11927;SDS011;6023;47.070;15.126;2023-04-03T00:16:18;1.40;;;1.30;;
11927;SDS011;6023;47.070;15.126;2023-04-03T00:18:46;1.53;;;1.43;;
11927;SDS011;6023;47.070;15.126;2023-04-03T00:21:15;2.17;;;1.50;;
11927;SDS011;6023;47.070;15.126;2023-04-03T00:23:43;1.60;;;1.40;;
11927;SDS011;6023;47.070;15.126;2023-04-03T00:26:12;1.50;;;1.40;;
11927;SDS011;6023;47.070;15.126;2023-04-03T00:28:41;1.30;;;1.20;;
11927;SDS011;6023;47.070;15.126;2023-04-03T00:31:09;1.50;;;1.40;;
11927;SDS011;6023;47.070;15.126;2023-04-03T00:33:39;1.30;;;1.20;;
11927;SDS011;6023;47.070;15.126;2023-04-03T00:36:08;1.93;;;1.60;;
11927;SDS011;6023;47.070;15.126;2023-04-03T00:38:37;1.23;;;1.20;;
11927;SDS011;6023;47.070;15.126;2023-04-03T00:41:06;1.70;;;1.60;;
11927;SDS011;6023;47.070;15.126;2023-04-03T00:43:35;2.43;;;1.60;;
11927;SDS011;6023;47.070;15.126;2023-04-03T00:46:04;1.57;;;1.47;;
11927;SDS011;6023;47.070;15.126;2023-04-03T00:48:33;1.67;;;1.57;;
11927;SDS011;6023;47.070;15.126;2023-04-03T00:51:06;1.60;;;1.40;;
11927;SDS011;6023;47.070;15.126;2023-04-03T00:53:37;2.43;;;1.70;;
11927;SDS011;6023;47.070;15.126;2023-04-03T00:56:08;1.60;;;1.50;;
11927;SDS011;6023;47.070;15.126;2023-04-03T00:58:40;1.50;;;1.40;;
11927;SDS011;6023;47.070;15.126;2023-04-03T01:01:12;1.50;;;1.40;;
11927;SDS011;6023;47.070;15.126;2023-04-03T01:03:44;1.67;;;1.57;;
11927;SDS011;6023;47.070;15.126;2023-04-03T01:06:14;1.73;;;1.57;;
11927;SDS011;6023;47.070;15.126;2023-04-03T01:08:44;2.00;;;1.40;;
11927;SDS011;6023;47.070;15.126;2023-04-03T01:11:13;1.30;;;1.20;;
11927;SDS011;6023;47.070;15.126;2023-04-03T01:13:42;1.87;;;1.40;;
11927;SDS011;6023;47.070;15.126;2023-04-03T01:16:11;2.23;;;1.70;;
11927;SDS011;6023;47.070;15.126;2023-04-03T01:18:39;1.63;;;1.53;;
11927;SDS011;6023;47.070;15.126;2023-04-03T01:24:25;1.60;;;1.50;;
11927;SDS011;6023;47.070;15.126;2023-04-03T01:26:58;1.70;;;1.60;;
11927;SDS011;6023;47.070;15.126;2023-04-03T01:29:27;1.90;;;1.60;;
11927;SDS011;6023;47.070;15.126;2023-04-03T01:31:57;1.50;;;1.40;;
11927;SDS011;6023;47.070;15.126;2023-04-03T01:34:26;1.70;;;1.60;;
11927;SDS011;6023;47.070;15.126;2023-04-03T01:36:56;1.60;;;1.50;;
11927;SDS011;6023;47.070;15.126;2023-04-03T01:39:24;1.50;;;1.40;;
11927;SDS011;6023;47.070;15.126;2023-04-03T01:41:53;2.00;;;1.60;;
11927;SDS011;6023;47.070;15.126;2023-04-03T01:44:22;1.67;;;1.57;;
11927;SDS011;6023;47.070;15.126;2023-04-03T01:46:50;2.10;;;1.80;;
11927;SDS011;6023;47.070;15.126;2023-04-03T01:49:20;1.83;;;1.60;;
11927;SDS011;6023;47.070;15.126;2023-04-03T01:51:48;1.70;;;1.60;;
11927;SDS011;6023;47.070;15.126;2023-04-03T01:54:17;1.60;;;1.50;;
11927;SDS011;6023;47.070;15.126;2023-04-03T01:56:45;1.57;;;1.47;;
11927;SDS011;6023;47.070;15.126;2023-04-03T01:59:14;2.20;;;1.87;;
11927;SDS011;6023;47.070;15.126;2023-04-03T02:01:43;3.57;;;1.60;;
11927;SDS011;6023;47.070;15.126;2023-04-03T02:04:12;35.00;;;26.53;;
11927;SDS011;6023;47.070;15.126;2023-04-03T02:06:42;47.70;;;40.43;;
11927;SDS011;6023;47.070;15.126;2023-04-03T02:09:11;27.07;;;22.20;;
11927;SDS011;6023;47.070;15.126;2023-04-03T02:11:39;9.67;;;7.83;;
11927;SDS011;6023;47.070;15.126;2023-04-03T02:14:08;2.13;;;1.93;;
11927;SDS011;6023;47.070;15.126;2023-04-03T02:16:36;2.13;;;1.93;;
11927;SDS011;6023;47.070;15.126;2023-04-03T02:19:05;1.90;;;1.80;;
11927;SDS011;6023;47.070;15.126;2023-04-03T02:21:34;1.80;;;1.70;;
11927;SDS011;6023;47.070;15.126;2023-04-03T02:24:04;1.90;;;1.80;;
11927;SDS011;6023;47.070;15.126;2023-04-03T02:26:33;2.40;;;1.80;;
11927;SDS011;6023;47.070;15.126;2023-04-03T02:29:01;2.13;;;1.90;;
11927;SDS011;6023;47.070;15.126;2023-04-03T02:31:30;2.00;;;1.80;;
11927;SDS011;6023;47.070;15.126;2023-04-03T02:33:59;2.03;;;1.90;;
11927;SDS011;6023;47.070;15.126;2023-04-03T02:36:27;2.50;;;1.90;;
11927;SDS011;6023;47.070;15.126;2023-04-03T02:38:58;2.40;;;1.67;;
11927;SDS011;6023;47.070;15.126;2023-04-03T02:41:28;1.77;;;1.67;;
11927;SDS011;6023;47.070;15.126;2023-04-03T02:44:01;1.77;;;1.67;;
11927;SDS011;6023;47.070;15.126;2023-04-03T02:46:30;1.90;;;1.80;;
11927;SDS011;6023;47.070;15.126;2023-04-03T02:48:59;2.13;;;1.70;;
11927;SDS011;6023;47.070;15.126;2023-04-03T02:51:27;1.83;;;1.73;;
11927;SDS011;6023;47.070;15.126;2023-04-03T02:53:56;1.70;;;1.60;;
11927;SDS011;6023;47.070;15.126;2023-04-03T02:56:27;2.30;;;1.70;;
11927;SDS011;6023;47.070;15.126;2023-04-03T02:58:56;2.33;;;2.10;;
11927;SDS011;6023;47.070;15.126;2023-04-03T03:01:25;2.50;;;1.87;;
11927;SDS011;6023;47.070;15.126;2023-04-03T03:03:55;2.93;;;1.80;;
11927;SDS011;6023;47.070;15.126;2023-04-03T03:06:23;2.30;;;2.10;;
11927;SDS011;6023;47.070;15.126;2023-04-03T03:08:52;2.20;;;2.00;;
11927;SDS011;6023;47.070;15.126;2023-04-03T03:11:20;2.00;;;1.90;;
11927;SDS011;6023;47.070;15.126;2023-04-03T03:13:50;2.37;;;2.10;;
11927;SDS011;6023;47.070;15.126;2023-04-03T03:16:19;2.00;;;1.80;;
11927;SDS011;6023;47.070;15.126;2023-04-03T03:18:47;2.10;;;1.90;;
11927;SDS011;6023;47.070;15.126;2023-04-03T03:21:16;1.90;;;1.80;;
11927;SDS011;6023;47.070;15.126;2023-04-03T03:23:44;2.47;;;1.73;;
11927;SDS011;6023;47.070;15.126;2023-04-03T03:26:13;2.43;;;1.90;;
11927;SDS011;6023;47.070;15.126;2023-04-03T03:28:41;2.00;;;1.90;;
11927;SDS011;6023;47.070;15.126;2023-04-03T03:31:11;2.13;;;1.77;;
11927;SDS011;6023;47.070;15.126;2023-04-03T03:33:40;2.10;;;1.83;;
11927;SDS011;6023;47.070;15.126;2023-04-03T03:36:08;2.30;;;1.93;;
11927;SDS011;6023;47.070;15.126;2023-04-03T03:38:37;1.90;;;1.80;;
11927;SDS011;6023;47.070;15.126;2023-04-03T03:41:05;2.57;;;2.10;;
11927;SDS011;6023;47.070;15.126;2023-04-03T03:43:34;2.10;;;1.60;;
11927;SDS011;6023;47.070;15.126;2023-04-03T03:46:03;4.10;;;3.20;;
11927;SDS011;6023;47.070;15.126;2023-04-03T03:48:33;5.63;;;4.13;;
11927;SDS011;6023;47.070;15.126;2023-04-03T03:51:01;6.50;;;4.60;;
11927;SDS011;6023;47.070;15.126;2023-04-03T03:53:30;6.70;;;4.87;;
11927;SDS011;6023;47.070;15.126;2023-04-03T03:55:59;8.20;;;6.30;;
11927;SDS011;6023;47.070;15.126;2023-04-03T03:58:27;7.03;;;3.83;;
11927;SDS011;6023;47.070;15.126;2023-04-03T04:00:56;8.70;;;4.70;;
11927;SDS011;6023;47.070;15.126;2023-04-03T04:03:24;6.40;;;4.03;;
11927;SDS011;6023;47.070;15.126;2023-04-03T04:05:54;6.67;;;4.00;;
11927;SDS011;6023;47.070;15.126;2023-04-03T04:08:23;7.07;;;4.30;;
11927;SDS011;6023;47.070;15.126;2023-04-03T04:10:51;5.90;;;4.17;;
11927;SDS011;6023;47.070;15.126;2023-04-03T04:13:20;5.67;;;4.20;;
11927;SDS011;6023;47.070;15.126;2023-04-03T04:15:49;6.03;;;4.67;;
11927;SDS011;6023;47.070;15.126;2023-04-03T04:18:17;5.00;;;4.10;;
11927;SDS011;6023;47.070;15.126;2023-04-03T04:20:46;3.87;;;3.33;;
11927;SDS011;6023;47.070;15.126;2023-04-03T04:23:17;5.47;;;3.77;;
11927;SDS011;6023;47.070;15.126;2023-04-03T04:25:45;7.00;;;3.30;;
11927;SDS011;6023;47.070;15.126;2023-04-03T04:28:14;3.67;;;2.83;;
11927;SDS011;6023;47.070;15.126;2023-04-03T04:30:43;3.80;;;3.10;;
11927;SDS011;6023;47.070;15.126;2023-04-03T04:33:12;3.40;;;2.50;;
11927;SDS011;6023;47.070;15.126;2023-04-03T04:35:41;5.47;;;2.87;;
11927;SDS011;6023;47.070;15.126;2023-04-03T04:38:10;5.40;;;2.80;;
11927;SDS011;6023;47.070;15.126;2023-04-03T04:40:40;3.73;;;2.70;;
11927;SDS011;6023;47.070;15.126;2023-04-03T04:43:09;4.30;;;3.10;;
11927;SDS011;6023;47.070;15.126;2023-04-03T04:45:40;7.53;;;3.50;;
11927;SDS011;6023;47.070;15.126;2023-04-03T04:48:09;6.03;;;3.97;;
11927;SDS011;6023;47.070;15.126;2023-04-03T04:50:38;7.90;;;5.93;;
11927;SDS011;6023;47.070;15.126;2023-04-03T04:53:06;9.07;;;6.93;;
11927;SDS011;6023;47.070;15.126;2023-04-03T04:55:35;5.43;;;4.20;;
11927;SDS011;6023;47.070;15.126;2023-04-03T04:58:05;7.43;;;5.83;;
11927;SDS011;6023;47.070;15.126;2023-04-03T05:00:34;6.80;;;4.77;;
11927;SDS011;6023;47.070;15.126;2023-04-03T05:03:02;7.77;;;4.23;;
11927;SDS011;6023;47.070;15.126;2023-04-03T05:05:31;9.47;;;3.80;;
11927;SDS011;6023;47.070;15.126;2023-04-03T05:07:59;5.30;;;2.97;;
11927;SDS011;6023;47.070;15.126;2023-04-03T05:10:28;5.27;;;2.70;;
11927;SDS011;6023;47.070;15.126;2023-04-03T05:12:57;4.40;;;2.70;;
11927;SDS011;6023;47.070;15.126;2023-04-03T05:15:27;7.43;;;4.47;;
11927;SDS011;6023;47.070;15.126;2023-04-03T05:17:56;7.47;;;4.70;;
11927;SDS011;6023;47.070;15.126;2023-04-03T05:20:24;4.33;;;3.50;;
11927;SDS011;6023;47.070;15.126;2023-04-03T05:22:53;5.53;;;2.93;;
11927;SDS011;6023;47.070;15.126;2023-04-03T05:25:21;3.27;;;2.57;;
11927;SDS011;6023;47.070;15.126;2023-04-03T05:27:52;5.07;;;2.80;;
11927;SDS011;6023;47.070;15.126;2023-04-03T05:30:21;6.60;;;3.63;;
11927;SDS011;6023;47.070;15.126;2023-04-03T05:32:51;11.70;;;8.30;;
11927;SDS011;6023;47.070;15.126;2023-04-03T05:35:20;41.47;;;33.43;;
11927;SDS011;6023;47.070;15.126;2023-04-03T05:37:48;10.00;;;8.63;;
11927;SDS011;6023;47.070;15.126;2023-04-03T05:40:17;7.33;;;4.17;;
11927;SDS011;6023;47.070;15.126;2023-04-03T05:42:46;5.10;;;3.37;;
11927;SDS011;6023;47.070;15.126;2023-04-03T05:45:14;5.33;;;3.27;;
11927;SDS011;6023;47.070;15.126;2023-04-03T05:47:43;4.83;;;3.60;;
11927;SDS011;6023;47.070;15.126;2023-04-03T05:50:13;6.40;;;3.53;;
11927;SDS011;6023;47.070;15.126;2023-04-03T05:52:42;10.07;;;3.73;;
11927;SDS011;6023;47.070;15.126;2023-04-03T05:55:13;6.20;;;3.50;;
11927;SDS011;6023;47.070;15.126;2023-04-03T05:57:42;7.00;;;4.80;;
11927;SDS011;6023;47.070;15.126;2023-04-03T06:00:12;11.00;;;7.10;;
11927;SDS011;6023;47.070;15.126;2023-04-03T06:02:42;5.93;;;3.70;;
11927;SDS011;6023;47.070;15.126;2023-04-03T06:05:11;9.33;;;5.67;;
11927;SDS011;6023;47.070;15.126;2023-04-03T06:07:41;4.70;;;3.30;;
11927;SDS011;6023;47.070;15.126;2023-04-03T06:10:11;4.73;;;2.90;;
11927;SDS011;6023;47.070;15.126;2023-04-03T06:12:40;4.10;;;3.10;;
11927;SDS011;6023;47.070;15.126;2023-04-03T06:15:09;4.43;;;3.00;;
11927;SDS011;6023;47.070;15.126;2023-04-03T06:17:38;6.53;;;3.17;;
11927;SDS011;6023;47.070;15.126;2023-04-03T06:20:07;3.63;;;2.87;;
11927;SDS011;6023;47.070;15.126;2023-04-03T06:22:36;3.57;;;2.40;;
11927;SDS011;6023;47.070;15.126;2023-04-03T06:25:06;3.77;;;2.77;;
11927;SDS011;6023;47.070;15.126;2023-04-03T06:27:36;3.87;;;3.40;;
11927;SDS011;6023;47.070;15.126;2023-04-03T06:30:05;4.47;;;2.50;;
11927;SDS011;6023;47.070;15.126;2023-04-03T06:32:34;4.53;;;2.60;;
11927;SDS011;6023;47.070;15.126;2023-04-03T06:35:03;5.50;;;3.23;;
11927;SDS011;6023;47.070;15.126;2023-04-03T06:37:33;8.83;;;5.77;;
11927;SDS011;6023;47.070;15.126;2023-04-03T06:40:02;8.20;;;6.40;;
11927;SDS011;6023;47.070;15.126;2023-04-03T06:42:33;3.23;;;2.90;;
11927;SDS011;6023;47.070;15.126;2023-04-03T06:45:01;2.23;;;2.03;;
11927;SDS011;6023;47.070;15.126;2023-04-03T06:47:30;2.67;;;2.00;;
11927;SDS011;6023;47.070;15.126;2023-04-03T06:49:59;2.00;;;1.90;;
11927;SDS011;6023;47.070;15.126;2023-04-03T06:52:27;2.40;;;2.07;;
11927;SDS011;6023;47.070;15.126;2023-04-03T06:54:55;3.97;;;2.50;;
11927;SDS011;6023;47.070;15.126;2023-04-03T06:57:26;1.90;;;1.80;;
11927;SDS011;6023;47.070;15.126;2023-04-03T06:59:56;2.03;;;1.73;;
11927;SDS011;6023;47.070;15.126;2023-04-03T07:02:24;1.67;;;1.40;;
11927;SDS011;6023;47.070;15.126;2023-04-03T07:04:54;1.40;;;1.30;;
11927;SDS011;6023;47.070;15.126;2023-04-03T07:07:22;1.83;;;1.73;;
11927;SDS011;6023;47.070;15.126;2023-04-03T07:09:51;1.70;;;1.60;;
11927;SDS011;6023;47.070;15.126;2023-04-03T07:12:19;2.20;;;1.40;;
11927;SDS011;6023;47.070;15.126;2023-04-03T07:14:48;2.50;;;2.00;;
11927;SDS011;6023;47.070;15.126;2023-04-03T07:17:18;1.97;;;1.57;;
11927;SDS011;6023;47.070;15.126;2023-04-03T07:19:47;1.37;;;1.20;;
11927;SDS011;6023;47.070;15.126;2023-04-03T07:22:16;1.83;;;1.30;;
11927;SDS011;6023;47.070;15.126;2023-04-03T07:24:45;1.27;;;1.13;;
11927;SDS011;6023;47.070;15.126;2023-04-03T07:27:14;1.00;;;0.90;;
11927;SDS011;6023;47.070;15.126;2023-04-03T07:29:42;3.93;;;1.30;;
11927;SDS011;6023;47.070;15.126;2023-04-03T07:32:11;1.23;;;1.17;;
11927;SDS011;6023;47.070;15.126;2023-04-03T07:34:41;2.00;;;1.57;;
11927;SDS011;6023;47.070;15.126;2023-04-03T07:37:09;3.00;;;1.30;;
11927;SDS011;6023;47.070;15.126;2023-04-03T07:39:38;1.40;;;1.30;;
11927;SDS011;6023;47.070;15.126;2023-04-03T07:42:06;1.37;;;1.27;;
11927;SDS011;6023;47.070;15.126;2023-04-03T07:44:35;7.00;;;4.90;;
11927;SDS011;6023;47.070;15.126;2023-04-03T07:47:04;2.53;;;2.27;;
11927;SDS011;6023;47.070;15.126;2023-04-03T07:49:32;1.83;;;1.40;;
11927;SDS011;6023;47.070;15.126;2023-04-03T07:52:06;1.53;;;1.30;;
11927;SDS011;6023;47.070;15.126;2023-04-03T07:54:35;1.07;;;1.00;;
11927;SDS011;6023;47.070;15.126;2023-04-03T07:57:04;2.30;;;1.47;;
11927;SDS011;6023;47.070;15.126;2023-04-03T07:59:33;5.03;;;1.27;;
11927;SDS011;6023;47.070;15.126;2023-04-03T08:02:02;2.53;;;1.20;;
11927;SDS011;6023;47.070;15.126;2023-04-03T08:04:31;2.60;;;1.90;;
11927;SDS011;6023;47.070;15.126;2023-04-03T08:07:00;2.13;;;1.50;;
11927;SDS011;6023;47.070;15.126;2023-04-03T08:09:30;1.97;;;1.40;;
11927;SDS011;6023;47.070;15.126;2023-04-03T08:11:59;1.30;;;1.20;;
11927;SDS011;6023;47.070;15.126;2023-04-03T08:14:29;1.30;;;1.20;;
11927;SDS011;6023;47.070;15.126;2023-04-03T08:17:01;1.23;;;1.13;;
11927;SDS011;6023;47.070;15.126;2023-04-03T08:19:31;2.17;;;1.20;;
11927;SDS011;6023;47.070;15.126;2023-04-03T08:21:59;2.13;;;1.33;;
11927;SDS011;6023;47.070;15.126;2023-04-03T08:24:31;2.53;;;1.40;;
11927;SDS011;6023;47.070;15.126;2023-04-03T08:26:59;4.23;;;1.70;;
11927;SDS011;6023;47.070;15.126;2023-04-03T08:29:28;1.40;;;1.30;;
11927;SDS011;6023;47.070;15.126;2023-04-03T08:31:59;1.10;;;1.00;;
11927;SDS011;6023;47.070;15.126;2023-04-03T08:34:27;2.27;;;1.40;;
11927;SDS011;6023;47.070;15.126;2023-04-03T08:36:56;1.30;;;1.20;;
11927;SDS011;6023;47.070;15.126;2023-04-03T08:39:25;1.63;;;1.40;;
11927;SDS011;6023;47.070;15.126;2023-04-03T08:41:55;1.77;;;1.33;;
11927;SDS011;6023;47.070;15.126;2023-04-03T08:44:31;1.77;;;1.30;;
11927;SDS011;6023;47.070;15.126;2023-04-03T08:47:11;2.10;;;1.57;;
11927;SDS011;6023;47.070;15.126;2023-04-03T08:49:47;2.10;;;1.67;;
11927;SDS011;6023;47.070;15.126;2023-04-03T08:52:18;1.60;;;1.50;;
11927;SDS011;6023;47.070;15.126;2023-04-03T08:54:51;1.47;;;1.37;;
11927;SDS011;6023;47.070;15.126;2023-04-03T08:57:26;1.40;;;1.30;;
11927;SDS011;6023;47.070;15.126;2023-04-03T08:59:58;2.00;;;1.33;;
11927;SDS011;6023;47.070;15.126;2023-04-03T09:02:31;1.70;;;1.60;;
11927;SDS011;6023;47.070;15.126;2023-04-03T09:05:02;1.30;;;1.20;;
11927;SDS011;6023;47.070;15.126;2023-04-03T09:07:35;1.17;;;1.07;;
11927;SDS011;6023;47.070;15.126;2023-04-03T09:10:10;0.90;;;0.90;;
11927;SDS011;6023;47.070;15.126;2023-04-03T09:12:42;1.50;;;1.40;;
11927;SDS011;6023;47.070;15.126;2023-04-03T09:15:17;1.33;;;1.23;;
11927;SDS011;6023;47.070;15.126;2023-04-03T09:18:05;1.20;;;1.10;;
11927;SDS011;6023;47.070;15.126;2023-04-03T09:20:42;0.93;;;0.93;;
11927;SDS011;6023;47.070;15.126;2023-04-03T09:23:15;0.97;;;0.97;;
11927;SDS011;6023;47.070;15.126;2023-04-03T09:25:47;1.33;;;1.10;;
11927;SDS011;6023;47.070;15.126;2023-04-03T09:28:17;0.87;;;0.87;;
11927;SDS011;6023;47.070;15.126;2023-04-03T09:30:46;1.77;;;1.00;;
11927;SDS011;6023;47.070;15.126;2023-04-03T09:33:14;3.17;;;1.00;;
11927;SDS011;6023;47.070;15.126;2023-04-03T09:35:43;2.07;;;1.50;;
11927;SDS011;6023;47.070;15.126;2023-04-03T09:38:15;1.43;;;1.30;;
11927;SDS011;6023;47.070;15.126;2023-04-03T09:40:47;1.47;;;1.37;;
11927;SDS011;6023;47.070;15.126;2023-04-03T09:43:24;1.03;;;1.03;;
11927;SDS011;6023;47.070;15.126;2023-04-03T09:45:55;3.03;;;1.90;;
11927;SDS011;6023;47.070;15.126;2023-04-03T09:48:24;1.73;;;1.63;;
11927;SDS011;6023;47.070;15.126;2023-04-03T09:50:59;1.17;;;1.10;;
11927;SDS011;6023;47.070;15.126;2023-04-03T09:53:29;1.20;;;1.10;;
11927;SDS011;6023;47.070;15.126;2023-04-03T09:56:00;1.40;;;1.30;;
11927;SDS011;6023;47.070;15.126;2023-04-03T09:58:33;2.47;;;1.00;;
11927;SDS011;6023;47.070;15.126;2023-04-03T10:01:23;5.93;;;1.37;;
11927;SDS011;6023;47.070;15.126;2023-04-03T10:04:05;1.30;;;1.20;;
11927;SDS011;6023;47.070;15.126;2023-04-03T10:06:36;2.50;;;1.50;;
11927;SDS011;6023;47.070;15.126;2023-04-03T10:09:20;1.20;;;1.17;;
11927;SDS011;6023;47.070;15.126;2023-04-03T10:12:00;1.23;;;1.20;;
11927;SDS011;6023;47.070;15.126;2023-04-03T10:14:33;1.40;;;1.30;;
11927;SDS011;6023;47.070;15.126;2023-04-03T10:17:06;1.40;;;1.30;;
11927;SDS011;6023;47.070;15.126;2023-04-03T10:19:43;1.73;;;1.20;;
11927;SDS011;6023;47.070;15.126;2023-04-03T10:22:16;1.17;;;1.07;;
11927;SDS011;6023;47.070;15.126;2023-04-03T10:24:51;3.03;;;1.37;;
11927;SDS011;6023;47.070;15.126;2023-04-03T10:27:27;2.37;;;1.60;;
11927;SDS011;6023;47.070;15.126;2023-04-03T10:30:07;1.60;;;1.30;;
11927;SDS011;6023;47.070;15.126;2023-04-03T10:32:51;1.30;;;1.20;;
11927;SDS011;6023;47.070;15.126;2023-04-03T10:35:30;2.70;;;2.03;;
11927;SDS011;6023;47.070;15.126;2023-04-03T10:38:08;1.47;;;1.37;;
11927;SDS011;6023;47.070;15.126;2023-04-03T10:40:43;1.33;;;1.23;;
11927;SDS011;6023;47.070;15.126;2023-04-03T10:43:17;1.50;;;1.40;;
11927;SDS011;6023;47.070;15.126;2023-04-03T10:45:55;1.40;;;1.27;;
11927;SDS011;6023;47.070;15.126;2023-04-03T10:48:32;1.30;;;1.20;;
11927;SDS011;6023;47.070;15.126;2023-04-03T10:51:09;2.10;;;1.20;;
11927;SDS011;6023;47.070;15.126;2023-04-03T10:53:50;1.50;;;1.30;;
11927;SDS011;6023;47.070;15.126;2023-04-03T10:56:27;2.37;;;1.40;;
11927;SDS011;6023;47.070;15.126;2023-04-03T10:59:02;1.30;;;1.20;;
11927;SDS011;6023;47.070;15.126;2023-04-03T11:01:38;2.13;;;1.40;;
11927;SDS011;6023;47.070;15.126;2023-04-03T11:04:09;1.20;;;1.17;;
11927;SDS011;6023;47.070;15.126;2023-04-03T11:06:39;1.43;;;1.33;;
11927;SDS011;6023;47.070;15.126;2023-04-03T11:09:14;1.77;;;1.20;;
11927;SDS011;6023;47.070;15.126;2023-04-03T11:11:47;1.40;;;1.30;;
11927;SDS011;6023;47.070;15.126;2023-04-03T11:14:17;1.40;;;1.30;;
11927;SDS011;6023;47.070;15.126;2023-04-03T11:16:52;1.10;;;1.10;;
11927;SDS011;6023;47.070;15.126;2023-04-03T11:19:31;2.37;;;1.67;;
11927;SDS011;6023;47.070;15.126;2023-04-03T11:22:04;1.37;;;1.27;;
11927;SDS011;6023;47.070;15.126;2023-04-03T11:24:37;2.33;;;1.50;;
11927;SDS011;6023;47.070;15.126;2023-04-03T11:27:09;1.90;;;1.57;;
11927;SDS011;6023;47.070;15.126;2023-04-03T11:29:43;1.60;;;1.50;;
11927;SDS011;6023;47.070;15.126;2023-04-03T11:32:26;2.60;;;1.50;;
11927;SDS011;6023;47.070;15.126;2023-04-03T11:35:00;2.23;;;1.70;;
11927;SDS011;6023;47.070;15.126;2023-04-03T11:37:31;1.80;;;1.70;;
11927;SDS011;6023;47.070;15.126;2023-04-03T11:40:03;4.40;;;3.13;;
11927;SDS011;6023;47.070;15.126;2023-04-03T11:42:36;2.53;;;1.50;;
11927;SDS011;6023;47.070;15.126;2023-04-03T12:12:57;1.70;;;1.40;;
11927;SDS011;6023;47.070;15.126;2023-04-03T12:21:22;1.43;;;1.30;;
11927;SDS011;6023;47.070;15.126;2023-04-03T12:24:01;2.37;;;1.90;;
11927;SDS011;6023;47.070;15.126;2023-04-03T12:26:38;1.43;;;1.33;;
11927;SDS011;6023;47.070;15.126;2023-04-03T12:29:17;1.83;;;1.67;;
11927;SDS011;6023;47.070;15.126;2023-04-03T12:31:53;1.40;;;1.30;;
11927;SDS011;6023;47.070;15.126;2023-04-03T12:34:51;2.70;;;1.40;;
11927;SDS011;6023;47.070;15.126;2023-04-03T12:37:30;1.60;;;1.27;;
11927;SDS011;6023;47.070;15.126;2023-04-03T12:40:15;1.30;;;1.20;;
11927;SDS011;6023;47.070;15.126;2023-04-03T12:45:56;0.90;;;0.90;;
11927;SDS011;6023;47.070;15.126;2023-04-03T12:48:29;1.63;;;1.10;;
11927;SDS011;6023;47.070;15.126;2023-04-03T12:50:59;1.30;;;1.20;;
11927;SDS011;6023;47.070;15.126;2023-04-03T12:53:28;0.90;;;0.90;;
11927;SDS011;6023;47.070;15.126;2023-04-03T12:58:49;1.40;;;1.10;;
11927;SDS011;6023;47.070;15.126;2023-04-03T13:01:20;1.20;;;1.00;;
11927;SDS011;6023;47.070;15.126;2023-04-03T13:03:51;0.90;;;0.90;;
11927;SDS011;6023;47.070;15.126;2023-04-03T13:06:22;1.47;;;1.20;;
11927;SDS011;6023;47.070;15.126;2023-04-03T13:08:53;0.90;;;0.90;;
11927;SDS011;6023;47.070;15.126;2023-04-03T13:11:23;2.20;;;1.20;;
11927;SDS011;6023;47.070;15.126;2023-04-03T13:13:56;1.50;;;1.13;;
11927;SDS011;6023;47.070;15.126;2023-04-03T13:16:25;1.20;;;1.10;;
11927;SDS011;6023;47.070;15.126;2023-04-03T13:18:54;1.43;;;1.33;;
11927;SDS011;6023;47.070;15.126;2023-04-03T13:21:24;1.30;;;1.13;;
11927;SDS011;6023;47.070;15.126;2023-04-03T13:23:54;1.40;;;1.30;;
11927;SDS011;6023;47.070;15.126;2023-04-03T13:26:41;1.40;;;1.30;;
11927;SDS011;6023;47.070;15.126;2023-04-03T13:29:18;1.30;;;1.20;;
11927;SDS011;6023;47.070;15.126;2023-04-03T13:31:58;1.20;;;1.10;;
11927;SDS011;6023;47.070;15.126;2023-04-03T13:34:28;1.20;;;1.10;;
11927;SDS011;6023;47.070;15.126;2023-04-03T13:37:03;1.50;;;1.20;;
11927;SDS011;6023;47.070;15.126;2023-04-03T13:39:33;2.27;;;1.10;;
11927;SDS011;6023;47.070;15.126;2023-04-03T13:42:14;1.60;;;1.13;;
11927;SDS011;6023;47.070;15.126;2023-04-03T13:44:45;1.03;;;0.93;;
11927;SDS011;6023;47.070;15.126;2023-04-03T13:47:15;7.57;;;5.47;;
11927;SDS011;6023;47.070;15.126;2023-04-03T13:49:55;1.27;;;0.90;;
11927;SDS011;6023;47.070;15.126;2023-04-03T13:52:28;1.33;;;1.23;;
11927;SDS011;6023;47.070;15.126;2023-04-03T13:54:59;1.40;;;1.30;;
11927;SDS011;6023;47.070;15.126;2023-04-03T13:57:33;1.10;;;1.00;;
11927;SDS011;6023;47.070;15.126;2023-04-03T14:03:13;1.17;;;1.17;;
11927;SDS011;6023;47.070;15.126;2023-04-03T14:05:41;1.20;;;1.10;;
11927;SDS011;6023;47.070;15.126;2023-04-03T14:08:11;2.03;;;1.27;;
11927;SDS011;6023;47.070;15.126;2023-04-03T14:10:40;1.43;;;1.33;;
11927;SDS011;6023;47.070;15.126;2023-04-03T14:13:09;2.13;;;1.30;;
11927;SDS011;6023;47.070;15.126;2023-04-03T14:15:40;2.57;;;1.10;;
11927;SDS011;6023;47.070;15.126;2023-04-03T14:18:10;1.13;;;1.00;;
11927;SDS011;6023;47.070;15.126;2023-04-03T14:20:42;1.20;;;1.10;;
11927;SDS011;6023;47.070;15.126;2023-04-03T14:23:11;1.53;;;1.10;;
11927;SDS011;6023;47.070;15.126;2023-04-03T14:25:39;1.50;;;1.40;;
11927;SDS011;6023;47.070;15.126;2023-04-03T14:28:12;1.63;;;1.33;;
11927;SDS011;6023;47.070;15.126;2023-04-03T14:30:44;1.10;;;1.10;;
11927;SDS011;6023;47.070;15.126;2023-04-03T14:33:17;1.50;;;1.40;;
11927;SDS011;6023;47.070;15.126;2023-04-03T14:35:47;1.97;;;1.40;;
11927;SDS011;6023;47.070;15.126;2023-04-03T14:38:26;1.73;;;1.43;;
11927;SDS011;6023;47.070;15.126;2023-04-03T14:40:56;3.27;;;1.47;;
11927;SDS011;6023;47.070;15.126;2023-04-03T14:43:41;2.10;;;1.37;;
11927;SDS011;6023;47.070;15.126;2023-04-03T14:46:12;1.40;;;1.30;;
11927;SDS011;6023;47.070;15.126;2023-04-03T14:48:43;1.43;;;1.10;;
11927;SDS011;6023;47.070;15.126;2023-04-03T14:51:12;1.40;;;1.30;;
11927;SDS011;6023;47.070;15.126;2023-04-03T14:53:43;2.10;;;1.40;;
11927;SDS011;6023;47.070;15.126;2023-04-03T14:56:13;1.20;;;1.10;;
11927;SDS011;6023;47.070;15.126;2023-04-03T14:58:43;1.20;;;1.10;;
11927;SDS011;6023;47.070;15.126;2023-04-03T15:01:16;1.37;;;1.10;;
11927;SDS011;6023;47.070;15.126;2023-04-03T15:03:46;2.90;;;1.30;;
11927;SDS011;6023;47.070;15.126;2023-04-03T15:06:15;3.83;;;2.90;;
11927;SDS011;6023;47.070;15.126;2023-04-03T15:08:45;3.10;;;1.60;;
11927;SDS011;6023;47.070;15.126;2023-04-03T15:11:14;1.70;;;1.60;;
11927;SDS011;6023;47.070;15.126;2023-04-03T15:13:43;2.37;;;1.30;;
11927;SDS011;6023;47.070;15.126;2023-04-03T15:16:14;1.63;;;1.53;;
11927;SDS011;6023;47.070;15.126;2023-04-03T15:18:45;1.40;;;1.23;;
11927;SDS011;6023;47.070;15.126;2023-04-03T15:21:15;1.30;;;1.20;;
11927;SDS011;6023;47.070;15.126;2023-04-03T15:23:44;2.17;;;1.50;;
11927;SDS011;6023;47.070;15.126;2023-04-03T15:26:12;2.57;;;1.20;;
11927;SDS011;6023;47.070;15.126;2023-04-03T15:28:41;1.50;;;1.40;;
11927;SDS011;6023;47.070;15.126;2023-04-03T15:31:10;1.20;;;1.20;;
11927;SDS011;6023;47.070;15.126;2023-04-03T15:33:39;1.23;;;1.13;;
11927;SDS011;6023;47.070;15.126;2023-04-03T15:36:09;1.50;;;1.00;;
11927;SDS011;6023;47.070;15.126;2023-04-03T15:38:42;2.10;;;1.20;;
11927;SDS011;6023;47.070;15.126;2023-04-03T15:41:11;1.20;;;1.10;;
11927;SDS011;6023;47.070;15.126;2023-04-03T15:43:39;1.50;;;1.20;;
11927;SDS011;6023;47.070;15.126;2023-04-03T15:46:08;1.57;;;1.47;;
11927;SDS011;6023;47.070;15.126;2023-04-03T15:48:37;1.60;;;1.30;;
11927;SDS011;6023;47.070;15.126;2023-04-03T15:51:09;1.53;;;1.43;;
11927;SDS011;6023;47.070;15.126;2023-04-03T15:53:37;1.30;;;1.20;;
11927;SDS011;6023;47.070;15.126;2023-04-03T15:56:05;1.43;;;1.20;;